sensor_id;sensor_type;location;lat;lon;timestamp;temperature;humidity
18147;DHT22;9199;48.832;9.182;2023-09-19T00:02:18;18.10;99.90
18147;DHT22;9199;48.832;9.182;2023-09-19T00:04:45;18.00;99.90
18147;DHT22;9199;48.832;9.182;2023-09-19T00:07:11;18.00;99.90
18147;DHT22;9199;48.832;9.182;2023-09-19T00:09:39;17.90;99.90
18147;DHT22;9199;48.832;9.182;2023-09-19T00:12:07;17.90;99.90
18147;DHT22;9199;48.832;9.182;2023-09-19T00:14:34;17.90;99.90
18147;DHT22;9199;48.832;9.182;2023-09-19T00:17:01;17.90;99.90
18147;DHT22;9199;48.832;9.182;2023-09-19T00:19:32;18.00;99.90
18147;DHT22;9199;48.832;9.182;2023-09-19T00:21:59;18.00;99.90
18147;DHT22;9199;48.832;9.182;2023-09-19T00:24:26;18.00;99.90
18147;DHT22;9199;48.832;9.182;2023-09-19T00:26:53;18.10;99.90
18147;DHT22;9199;48.832;9.182;2023-09-19T00:29:21;18.10;99.90
18147;DHT22;9199;48.832;9.182;2023-09-19T00:31:49;18.10;99.90
18147;DHT22;9199;48.832;9.182;2023-09-19T00:34:16;18.10;99.90
18147;DHT22;9199;48.832;9.182;2023-09-19T00:36:44;18.10;99.90
18147;DHT22;9199;48.832;9.182;2023-09-19T00:39:11;18.10;99.90
18147;DHT22;9199;48.832;9.182;2023-09-19T00:41:37;18.00;99.90
18147;DHT22;9199;48.832;9.182;2023-09-19T00:44:06;18.00;99.90
18147;DHT22;9199;48.832;9.182;2023-09-19T00:46:33;18.00;99.90
18147;DHT22;9199;48.832;9.182;2023-09-19T00:49:00;18.00;99.90
18147;DHT22;9199;48.832;9.182;2023-09-19T00:51:28;18.00;99.90
18147;DHT22;9199;48.832;9.182;2023-09-19T00:53:56;18.00;99.90
18147;DHT22;9199;48.832;9.182;2023-09-19T00:56:24;17.90;99.90
18147;DHT22;9199;48.832;9.182;2023-09-19T00:58:52;17.90;99.90
18147;DHT22;9199;48.832;9.182;2023-09-19T01:01:19;17.90;99.90
18147;DHT22;9199;48.832;9.182;2023-09-19T01:03:46;17.90;99.90
18147;DHT22;9199;48.832;9.182;2023-09-19T01:06:13;17.90;99.90
18147;DHT22;9199;48.832;9.182;2023-09-19T01:08:39;17.80;99.90
18147;DHT22;9199;48.832;9.182;2023-09-19T01:11:12;17.80;99.90
18147;DHT22;9199;48.832;9.182;2023-09-19T01:13:55;17.80;99.90
18147;DHT22;9199;48.832;9.182;2023-09-19T01:16:32;17.70;99.90
18147;DHT22;9199;48.832;9.182;2023-09-19T01:19:12;17.80;99.90
18147;DHT22;9199;48.832;9.182;2023-09-19T01:21:51;17.80;99.90
18147;DHT22;9199;48.832;9.182;2023-09-19T01:24:43;17.80;99.90
18147;DHT22;9199;48.832;9.182;2023-09-19T01:27:35;17.80;99.90
18147;DHT22;9199;48.832;9.182;2023-09-19T01:30:09;17.70;99.90
18147;DHT22;9199;48.832;9.182;2023-09-19T01:32:37;17.80;99.90
18147;DHT22;9199;48.832;9.182;2023-09-19T01:35:04;17.70;99.90
18147;DHT22;9199;48.832;9.182;2023-09-19T01:37:31;17.70;99.90
18147;DHT22;9199;48.832;9.182;2023-09-19T01:40:00;17.70;99.90
18147;DHT22;9199;48.832;9.182;2023-09-19T01:42:44;17.70;99.90
18147;DHT22;9199;48.832;9.182;2023-09-19T01:45:17;17.60;99.90
18147;DHT22;9199;48.832;9.182;2023-09-19T01:47:50;17.60;99.90
18147;DHT22;9199;48.832;9.182;2023-09-19T01:50:27;17.60;99.90
18147;DHT22;9199;48.832;9.182;2023-09-19T01:52:59;17.60;99.90
18147;DHT22;9199;48.832;9.182;2023-09-19T01:55:30;17.60;99.90
18147;DHT22;9199;48.832;9.182;2023-09-19T01:58:01;17.60;99.90
18147;DHT22;9199;48.832;9.182;2023-09-19T02:00:33;17.50;99.90
18147;DHT22;9199;48.832;9.182;2023-09-19T02:03:03;17.50;99.90
18147;DHT22;9199;48.832;9.182;2023-09-19T02:05:30;17.50;99.90
18147;DHT22;9199;48.832;9.182;2023-09-19T02:07:58;17.50;99.90
18147;DHT22;9199;48.832;9.182;2023-09-19T02:10:26;17.50;99.90
18147;DHT22;9199;48.832;9.182;2023-09-19T02:12:53;17.40;99.90
18147;DHT22;9199;48.832;9.182;2023-09-19T02:15:20;17.40;99.90
18147;DHT22;9199;48.832;9.182;2023-09-19T02:17:49;17.40;99.90
18147;DHT22;9199;48.832;9.182;2023-09-19T02:20:15;17.40;99.90
18147;DHT22;9199;48.832;9.182;2023-09-19T02:22:42;17.40;99.90
18147;DHT22;9199;48.832;9.182;2023-09-19T02:25:09;17.40;99.90
18147;DHT22;9199;48.832;9.182;2023-09-19T02:27:36;17.30;99.90
18147;DHT22;9199;48.832;9.182;2023-09-19T02:30:04;17.30;99.90
18147;DHT22;9199;48.832;9.182;2023-09-19T02:32:31;17.30;99.90
18147;DHT22;9199;48.832;9.182;2023-09-19T02:35:03;17.30;99.90
18147;DHT22;9199;48.832;9.182;2023-09-19T02:37:31;17.20;99.90
18147;DHT22;9199;48.832;9.182;2023-09-19T02:39:58;17.20;99.90
18147;DHT22;9199;48.832;9.182;2023-09-19T02:42:25;17.20;99.90
18147;DHT22;9199;48.832;9.182;2023-09-19T02:44:52;17.10;99.90
18147;DHT22;9199;48.832;9.182;2023-09-19T02:47:18;17.10;99.90
18147;DHT22;9199;48.832;9.182;2023-09-19T02:49:45;17.10;99.90
18147;DHT22;9199;48.832;9.182;2023-09-19T02:52:13;17.00;99.90
18147;DHT22;9199;48.832;9.182;2023-09-19T02:54:40;17.10;99.90
18147;DHT22;9199;48.832;9.182;2023-09-19T02:57:10;17.00;99.90
18147;DHT22;9199;48.832;9.182;2023-09-19T02:59:39;17.00;99.90
18147;DHT22;9199;48.832;9.182;2023-09-19T03:02:06;17.00;99.90
18147;DHT22;9199;48.832;9.182;2023-09-19T03:04:34;17.10;99.90
18147;DHT22;9199;48.832;9.182;2023-09-19T03:07:00;17.10;99.90
18147;DHT22;9199;48.832;9.182;2023-09-19T03:09:31;17.10;99.90
18147;DHT22;9199;48.832;9.182;2023-09-19T03:11:57;17.20;99.90
18147;DHT22;9199;48.832;9.182;2023-09-19T03:14:25;17.20;99.90
18147;DHT22;9199;48.832;9.182;2023-09-19T03:16:55;17.20;99.90
18147;DHT22;9199;48.832;9.182;2023-09-19T03:19:22;17.20;99.90
18147;DHT22;9199;48.832;9.182;2023-09-19T03:21:48;17.30;99.90
18147;DHT22;9199;48.832;9.182;2023-09-19T03:24:16;17.30;99.90
18147;DHT22;9199;48.832;9.182;2023-09-19T03:26:44;17.30;99.90
18147;DHT22;9199;48.832;9.182;2023-09-19T03:29:11;17.30;99.90
18147;DHT22;9199;48.832;9.182;2023-09-19T03:31:39;17.30;99.90
18147;DHT22;9199;48.832;9.182;2023-09-19T03:34:06;17.30;99.90
18147;DHT22;9199;48.832;9.182;2023-09-19T03:36:33;17.30;99.90
18147;DHT22;9199;48.832;9.182;2023-09-19T03:38:59;17.30;99.90
18147;DHT22;9199;48.832;9.182;2023-09-19T03:41:26;17.40;99.90
18147;DHT22;9199;48.832;9.182;2023-09-19T03:43:54;17.40;99.90
18147;DHT22;9199;48.832;9.182;2023-09-19T03:46:21;17.30;99.90
18147;DHT22;9199;48.832;9.182;2023-09-19T03:48:48;17.30;99.90
18147;DHT22;9199;48.832;9.182;2023-09-19T03:51:15;17.30;99.90
18147;DHT22;9199;48.832;9.182;2023-09-19T03:53:42;17.40;99.90
18147;DHT22;9199;48.832;9.182;2023-09-19T03:56:09;17.40;99.90
18147;DHT22;9199;48.832;9.182;2023-09-19T03:58:36;17.40;99.90
18147;DHT22;9199;48.832;9.182;2023-09-19T04:01:06;17.40;99.90
18147;DHT22;9199;48.832;9.182;2023-09-19T04:03:34;17.40;99.90
18147;DHT22;9199;48.832;9.182;2023-09-19T04:06:11;17.40;99.90
18147;DHT22;9199;48.832;9.182;2023-09-19T04:08:38;17.40;99.90
18147;DHT22;9199;48.832;9.182;2023-09-19T04:11:05;17.30;99.90
18147;DHT22;9199;48.832;9.182;2023-09-19T04:13:32;17.30;99.90
18147;DHT22;9199;48.832;9.182;2023-09-19T04:15:58;17.10;99.90
18147;DHT22;9199;48.832;9.182;2023-09-19T04:18:27;17.00;99.90
18147;DHT22;9199;48.832;9.182;2023-09-19T04:20:56;16.90;99.90
18147;DHT22;9199;48.832;9.182;2023-09-19T04:23:23;16.80;99.90
18147;DHT22;9199;48.832;9.182;2023-09-19T04:25:50;16.70;99.90
18147;DHT22;9199;48.832;9.182;2023-09-19T04:28:17;16.60;99.90
18147;DHT22;9199;48.832;9.182;2023-09-19T04:30:43;16.60;99.90
18147;DHT22;9199;48.832;9.182;2023-09-19T04:33:10;16.60;99.90
18147;DHT22;9199;48.832;9.182;2023-09-19T04:35:41;16.60;99.90
18147;DHT22;9199;48.832;9.182;2023-09-19T04:38:09;16.50;99.90
18147;DHT22;9199;48.832;9.182;2023-09-19T04:40:35;16.50;99.90
18147;DHT22;9199;48.832;9.182;2023-09-19T04:43:05;16.60;99.90
18147;DHT22;9199;48.832;9.182;2023-09-19T04:45:33;16.60;99.90
18147;DHT22;9199;48.832;9.182;2023-09-19T04:48:00;16.60;99.90
18147;DHT22;9199;48.832;9.182;2023-09-19T04:50:28;16.60;99.90
18147;DHT22;9199;48.832;9.182;2023-09-19T04:52:56;16.70;99.90
18147;DHT22;9199;48.832;9.182;2023-09-19T04:55:23;16.60;99.90
18147;DHT22;9199;48.832;9.182;2023-09-19T04:57:51;16.60;99.90
18147;DHT22;9199;48.832;9.182;2023-09-19T05:00:19;16.60;99.90
18147;DHT22;9199;48.832;9.182;2023-09-19T05:02:49;16.60;99.90
18147;DHT22;9199;48.832;9.182;2023-09-19T05:05:16;16.60;99.90
18147;DHT22;9199;48.832;9.182;2023-09-19T05:07:44;16.60;99.90
18147;DHT22;9199;48.832;9.182;2023-09-19T05:10:13;16.50;99.90
18147;DHT22;9199;48.832;9.182;2023-09-19T05:12:40;16.50;99.90
18147;DHT22;9199;48.832;9.182;2023-09-19T05:15:09;16.50;99.90
18147;DHT22;9199;48.832;9.182;2023-09-19T05:17:36;16.60;99.90
18147;DHT22;9199;48.832;9.182;2023-09-19T05:20:04;16.70;99.90
18147;DHT22;9199;48.832;9.182;2023-09-19T05:22:41;16.80;99.90
18147;DHT22;9199;48.832;9.182;2023-09-19T05:25:08;16.90;99.90
18147;DHT22;9199;48.832;9.182;2023-09-19T05:27:37;16.90;99.90
18147;DHT22;9199;48.832;9.182;2023-09-19T05:30:05;17.00;99.90
18147;DHT22;9199;48.832;9.182;2023-09-19T05:32:32;17.00;99.90
18147;DHT22;9199;48.832;9.182;2023-09-19T05:34:59;17.00;99.90
18147;DHT22;9199;48.832;9.182;2023-09-19T05:37:26;16.80;99.90
18147;DHT22;9199;48.832;9.182;2023-09-19T05:39:53;16.60;99.90
18147;DHT22;9199;48.832;9.182;2023-09-19T05:42:20;16.40;99.90
18147;DHT22;9199;48.832;9.182;2023-09-19T05:44:48;16.30;99.90
18147;DHT22;9199;48.832;9.182;2023-09-19T05:47:15;16.20;99.90
18147;DHT22;9199;48.832;9.182;2023-09-19T05:49:41;16.30;99.90
18147;DHT22;9199;48.832;9.182;2023-09-19T05:52:09;16.20;99.90
18147;DHT22;9199;48.832;9.182;2023-09-19T05:54:36;16.20;99.90
18147;DHT22;9199;48.832;9.182;2023-09-19T05:57:03;16.20;99.90
18147;DHT22;9199;48.832;9.182;2023-09-19T05:59:30;16.20;99.90
18147;DHT22;9199;48.832;9.182;2023-09-19T06:01:58;16.20;99.90
18147;DHT22;9199;48.832;9.182;2023-09-19T06:04:25;16.10;99.90
18147;DHT22;9199;48.832;9.182;2023-09-19T06:06:51;16.10;99.90
18147;DHT22;9199;48.832;9.182;2023-09-19T06:09:18;16.00;99.90
18147;DHT22;9199;48.832;9.182;2023-09-19T06:11:48;15.80;99.90
18147;DHT22;9199;48.832;9.182;2023-09-19T06:14:15;15.60;99.90
18147;DHT22;9199;48.832;9.182;2023-09-19T06:16:43;15.50;99.90
18147;DHT22;9199;48.832;9.182;2023-09-19T06:19:12;15.60;99.90
18147;DHT22;9199;48.832;9.182;2023-09-19T06:21:38;15.60;99.90
18147;DHT22;9199;48.832;9.182;2023-09-19T06:24:06;15.60;99.90
18147;DHT22;9199;48.832;9.182;2023-09-19T06:26:33;15.60;99.90
18147;DHT22;9199;48.832;9.182;2023-09-19T06:28:59;15.70;99.90
18147;DHT22;9199;48.832;9.182;2023-09-19T06:31:26;15.80;99.90
18147;DHT22;9199;48.832;9.182;2023-09-19T06:33:53;15.80;99.90
18147;DHT22;9199;48.832;9.182;2023-09-19T06:36:21;15.90;99.90
18147;DHT22;9199;48.832;9.182;2023-09-19T06:38:48;16.00;99.90
18147;DHT22;9199;48.832;9.182;2023-09-19T06:41:16;16.20;99.90
18147;DHT22;9199;48.832;9.182;2023-09-19T06:43:43;16.30;99.90
18147;DHT22;9199;48.832;9.182;2023-09-19T06:46:10;16.40;99.90
18147;DHT22;9199;48.832;9.182;2023-09-19T06:48:38;16.50;99.90
18147;DHT22;9199;48.832;9.182;2023-09-19T06:51:05;16.50;99.90
18147;DHT22;9199;48.832;9.182;2023-09-19T06:53:33;16.60;99.90
18147;DHT22;9199;48.832;9.182;2023-09-19T06:56:01;16.70;99.90
18147;DHT22;9199;48.832;9.182;2023-09-19T06:58:28;16.90;99.90
18147;DHT22;9199;48.832;9.182;2023-09-19T07:00:54;16.90;99.90
18147;DHT22;9199;48.832;9.182;2023-09-19T07:03:22;17.20;99.90
18147;DHT22;9199;48.832;9.182;2023-09-19T07:05:51;17.50;99.90
18147;DHT22;9199;48.832;9.182;2023-09-19T07:08:21;17.70;99.90
18147;DHT22;9199;48.832;9.182;2023-09-19T07:10:50;18.00;99.90
18147;DHT22;9199;48.832;9.182;2023-09-19T07:13:18;18.20;99.90
18147;DHT22;9199;48.832;9.182;2023-09-19T07:15:45;18.30;99.90
18147;DHT22;9199;48.832;9.182;2023-09-19T07:18:13;18.30;99.90
18147;DHT22;9199;48.832;9.182;2023-09-19T07:20:42;18.30;99.90
18147;DHT22;9199;48.832;9.182;2023-09-19T07:23:14;18.20;99.90
18147;DHT22;9199;48.832;9.182;2023-09-19T07:25:41;18.10;99.90
18147;DHT22;9199;48.832;9.182;2023-09-19T07:28:09;18.00;99.90
18147;DHT22;9199;48.832;9.182;2023-09-19T07:30:36;18.00;99.90
18147;DHT22;9199;48.832;9.182;2023-09-19T07:33:05;18.20;99.90
18147;DHT22;9199;48.832;9.182;2023-09-19T07:35:31;18.30;99.90
18147;DHT22;9199;48.832;9.182;2023-09-19T07:37:58;18.30;99.90
18147;DHT22;9199;48.832;9.182;2023-09-19T07:40:27;18.40;99.90
18147;DHT22;9199;48.832;9.182;2023-09-19T07:42:54;18.50;99.90
18147;DHT22;9199;48.832;9.182;2023-09-19T07:45:22;18.70;99.90
18147;DHT22;9199;48.832;9.182;2023-09-19T07:47:51;18.90;99.90
18147;DHT22;9199;48.832;9.182;2023-09-19T07:50:19;18.90;99.90
18147;DHT22;9199;48.832;9.182;2023-09-19T07:52:46;19.10;99.90
18147;DHT22;9199;48.832;9.182;2023-09-19T07:55:13;19.10;99.90
18147;DHT22;9199;48.832;9.182;2023-09-19T07:57:42;19.20;99.90
18147;DHT22;9199;48.832;9.182;2023-09-19T08:00:10;19.30;99.90
18147;DHT22;9199;48.832;9.182;2023-09-19T08:02:39;19.40;99.90
18147;DHT22;9199;48.832;9.182;2023-09-19T08:05:07;19.40;99.90
18147;DHT22;9199;48.832;9.182;2023-09-19T08:07:35;19.40;99.90
18147;DHT22;9199;48.832;9.182;2023-09-19T08:10:03;19.40;99.90
18147;DHT22;9199;48.832;9.182;2023-09-19T08:12:30;19.60;99.90
18147;DHT22;9199;48.832;9.182;2023-09-19T08:14:58;20.10;99.90
18147;DHT22;9199;48.832;9.182;2023-09-19T08:17:24;20.50;99.90
18147;DHT22;9199;48.832;9.182;2023-09-19T08:19:53;20.90;99.90
18147;DHT22;9199;48.832;9.182;2023-09-19T08:22:22;21.30;99.90
18147;DHT22;9199;48.832;9.182;2023-09-19T08:24:49;21.40;99.90
18147;DHT22;9199;48.832;9.182;2023-09-19T08:27:16;21.20;99.90
18147;DHT22;9199;48.832;9.182;2023-09-19T08:29:43;21.20;99.90
18147;DHT22;9199;48.832;9.182;2023-09-19T08:32:12;21.30;99.90
18147;DHT22;9199;48.832;9.182;2023-09-19T08:34:38;21.50;99.90
18147;DHT22;9199;48.832;9.182;2023-09-19T08:37:06;21.60;99.90
18147;DHT22;9199;48.832;9.182;2023-09-19T08:39:33;21.90;99.90
18147;DHT22;9199;48.832;9.182;2023-09-19T08:42:02;21.50;99.90
18147;DHT22;9199;48.832;9.182;2023-09-19T08:44:30;21.40;99.90
18147;DHT22;9199;48.832;9.182;2023-09-19T08:47:04;21.50;99.90
18147;DHT22;9199;48.832;9.182;2023-09-19T08:49:37;21.50;99.90
18147;DHT22;9199;48.832;9.182;2023-09-19T08:52:13;21.90;99.90
18147;DHT22;9199;48.832;9.182;2023-09-19T08:54:44;22.10;99.90
18147;DHT22;9199;48.832;9.182;2023-09-19T08:57:12;22.10;99.90
18147;DHT22;9199;48.832;9.182;2023-09-19T08:59:47;22.60;99.90
18147;DHT22;9199;48.832;9.182;2023-09-19T09:02:15;23.30;99.90
18147;DHT22;9199;48.832;9.182;2023-09-19T09:04:46;23.80;99.90
18147;DHT22;9199;48.832;9.182;2023-09-19T09:07:15;23.90;99.90
18147;DHT22;9199;48.832;9.182;2023-09-19T09:09:44;23.70;99.90
18147;DHT22;9199;48.832;9.182;2023-09-19T09:12:13;23.80;99.90
18147;DHT22;9199;48.832;9.182;2023-09-19T09:14:43;23.50;99.90
18147;DHT22;9199;48.832;9.182;2023-09-19T09:17:11;23.20;99.90
18147;DHT22;9199;48.832;9.182;2023-09-19T09:19:38;22.40;99.90
18147;DHT22;9199;48.832;9.182;2023-09-19T09:22:08;22.70;99.90
18147;DHT22;9199;48.832;9.182;2023-09-19T09:24:37;22.50;99.90
18147;DHT22;9199;48.832;9.182;2023-09-19T09:27:06;22.40;99.80
18147;DHT22;9199;48.832;9.182;2023-09-19T09:29:44;22.60;99.90
18147;DHT22;9199;48.832;9.182;2023-09-19T09:32:20;22.40;99.50
18147;DHT22;9199;48.832;9.182;2023-09-19T09:34:49;22.10;99.30
18147;DHT22;9199;48.832;9.182;2023-09-19T09:37:17;21.80;99.20
18147;DHT22;9199;48.832;9.182;2023-09-19T09:39:56;21.50;99.70
18147;DHT22;9199;48.832;9.182;2023-09-19T09:42:29;21.20;99.90
18147;DHT22;9199;48.832;9.182;2023-09-19T09:45:13;21.00;99.60
18147;DHT22;9199;48.832;9.182;2023-09-19T09:47:44;21.00;99.90
18147;DHT22;9199;48.832;9.182;2023-09-19T09:50:28;21.00;99.50
18147;DHT22;9199;48.832;9.182;2023-09-19T09:53:03;21.00;99.70
18147;DHT22;9199;48.832;9.182;2023-09-19T09:55:57;21.00;99.60
18147;DHT22;9199;48.832;9.182;2023-09-19T09:58:25;21.30;99.40
18147;DHT22;9199;48.832;9.182;2023-09-19T10:00:55;21.90;99.00
18147;DHT22;9199;48.832;9.182;2023-09-19T10:03:32;22.30;98.40
18147;DHT22;9199;48.832;9.182;2023-09-19T10:06:05;22.20;97.70
18147;DHT22;9199;48.832;9.182;2023-09-19T10:09:04;21.60;98.20
18147;DHT22;9199;48.832;9.182;2023-09-19T10:11:41;21.10;98.70
18147;DHT22;9199;48.832;9.182;2023-09-19T10:14:11;21.00;99.10
18147;DHT22;9199;48.832;9.182;2023-09-19T10:16:41;20.90;99.30
18147;DHT22;9199;48.832;9.182;2023-09-19T10:19:18;20.90;99.20
18147;DHT22;9199;48.832;9.182;2023-09-19T10:21:48;21.70;98.50
18147;DHT22;9199;48.832;9.182;2023-09-19T10:24:17;22.40;97.30
18147;DHT22;9199;48.832;9.182;2023-09-19T10:26:46;22.30;97.70
18147;DHT22;9199;48.832;9.182;2023-09-19T10:29:17;23.20;96.50
18147;DHT22;9199;48.832;9.182;2023-09-19T10:31:47;23.90;94.80
18147;DHT22;9199;48.832;9.182;2023-09-19T10:34:17;24.00;95.00
18147;DHT22;9199;48.832;9.182;2023-09-19T10:36:45;25.10;94.60
18147;DHT22;9199;48.832;9.182;2023-09-19T10:39:14;25.70;92.00
18147;DHT22;9199;48.832;9.182;2023-09-19T10:41:49;25.60;91.50
18147;DHT22;9199;48.832;9.182;2023-09-19T10:44:22;25.20;91.80
18147;DHT22;9199;48.832;9.182;2023-09-19T10:46:51;25.50;91.30
18147;DHT22;9199;48.832;9.182;2023-09-19T10:49:19;26.40;90.70
18147;DHT22;9199;48.832;9.182;2023-09-19T10:51:47;27.10;86.10
18147;DHT22;9199;48.832;9.182;2023-09-19T10:54:17;27.90;81.90
18147;DHT22;9199;48.832;9.182;2023-09-19T10:56:49;27.90;80.00
18147;DHT22;9199;48.832;9.182;2023-09-19T10:59:18;28.10;77.50
18147;DHT22;9199;48.832;9.182;2023-09-19T11:01:47;27.90;77.20
18147;DHT22;9199;48.832;9.182;2023-09-19T11:04:27;27.90;77.40
18147;DHT22;9199;48.832;9.182;2023-09-19T11:07:02;28.00;73.70
18147;DHT22;9199;48.832;9.182;2023-09-19T11:09:49;28.00;73.00
18147;DHT22;9199;48.832;9.182;2023-09-19T11:12:51;27.80;72.60
18147;DHT22;9199;48.832;9.182;2023-09-19T11:18:53;27.00;75.20
18147;DHT22;9199;48.832;9.182;2023-09-19T11:21:39;26.40;75.60
18147;DHT22;9199;48.832;9.182;2023-09-19T11:24:29;26.20;76.60
18147;DHT22;9199;48.832;9.182;2023-09-19T11:27:15;26.70;73.80
18147;DHT22;9199;48.832;9.182;2023-09-19T11:29:45;26.30;74.80
18147;DHT22;9199;48.832;9.182;2023-09-19T11:32:12;26.10;75.50
18147;DHT22;9199;48.832;9.182;2023-09-19T11:34:48;25.90;74.40
18147;DHT22;9199;48.832;9.182;2023-09-19T11:40:45;26.40;73.80
18147;DHT22;9199;48.832;9.182;2023-09-19T11:43:31;26.80;71.90
18147;DHT22;9199;48.832;9.182;2023-09-19T11:46:09;27.00;69.20
18147;DHT22;9199;48.832;9.182;2023-09-19T11:48:38;27.30;67.80
18147;DHT22;9199;48.832;9.182;2023-09-19T11:51:14;27.00;68.30
18147;DHT22;9199;48.832;9.182;2023-09-19T11:53:53;26.30;73.40
18147;DHT22;9199;48.832;9.182;2023-09-19T11:56:21;25.20;71.10
18147;DHT22;9199;48.832;9.182;2023-09-19T11:58:50;24.40;73.80
18147;DHT22;9199;48.832;9.182;2023-09-19T12:01:22;24.10;75.70
18147;DHT22;9199;48.832;9.182;2023-09-19T12:03:54;24.70;75.70
18147;DHT22;9199;48.832;9.182;2023-09-19T12:06:23;25.50;77.50
18147;DHT22;9199;48.832;9.182;2023-09-19T12:08:50;26.70;74.50
18147;DHT22;9199;48.832;9.182;2023-09-19T12:11:19;27.90;75.10
18147;DHT22;9199;48.832;9.182;2023-09-19T12:13:48;29.50;70.70
18147;DHT22;9199;48.832;9.182;2023-09-19T12:16:17;30.30;63.70
18147;DHT22;9199;48.832;9.182;2023-09-19T12:18:49;30.20;62.30
18147;DHT22;9199;48.832;9.182;2023-09-19T12:21:30;29.80;63.70
18147;DHT22;9199;48.832;9.182;2023-09-19T12:23:58;29.90;64.10
18147;DHT22;9199;48.832;9.182;2023-09-19T12:26:26;29.60;63.20
18147;DHT22;9199;48.832;9.182;2023-09-19T12:28:54;28.90;66.10
18147;DHT22;9199;48.832;9.182;2023-09-19T12:31:21;29.10;67.10
18147;DHT22;9199;48.832;9.182;2023-09-19T12:33:54;29.00;62.90
18147;DHT22;9199;48.832;9.182;2023-09-19T12:36:21;28.60;64.90
18147;DHT22;9199;48.832;9.182;2023-09-19T12:38:54;28.00;64.70
18147;DHT22;9199;48.832;9.182;2023-09-19T12:41:22;27.60;66.60
18147;DHT22;9199;48.832;9.182;2023-09-19T12:43:49;28.20;65.70
18147;DHT22;9199;48.832;9.182;2023-09-19T12:46:20;28.20;65.90
18147;DHT22;9199;48.832;9.182;2023-09-19T12:51:36;27.50;65.80
18147;DHT22;9199;48.832;9.182;2023-09-19T12:54:03;28.30;63.40
18147;DHT22;9199;48.832;9.182;2023-09-19T12:56:39;28.90;63.70
18147;DHT22;9199;48.832;9.182;2023-09-19T12:59:07;29.80;61.40
18147;DHT22;9199;48.832;9.182;2023-09-19T13:01:37;31.10;58.90
18147;DHT22;9199;48.832;9.182;2023-09-19T13:04:16;31.20;57.80
18147;DHT22;9199;48.832;9.182;2023-09-19T13:06:48;30.00;59.10
18147;DHT22;9199;48.832;9.182;2023-09-19T13:09:16;28.90;61.10
18147;DHT22;9199;48.832;9.182;2023-09-19T13:11:43;27.80;62.90
18147;DHT22;9199;48.832;9.182;2023-09-19T13:14:15;26.90;65.40
18147;DHT22;9199;48.832;9.182;2023-09-19T13:16:55;26.60;67.70
18147;DHT22;9199;48.832;9.182;2023-09-19T13:19:39;27.50;65.20
18147;DHT22;9199;48.832;9.182;2023-09-19T13:22:38;28.90;60.50
18147;DHT22;9199;48.832;9.182;2023-09-19T13:25:07;28.80;60.70
18147;DHT22;9199;48.832;9.182;2023-09-19T13:27:39;29.30;60.70
18147;DHT22;9199;48.832;9.182;2023-09-19T13:30:07;29.30;60.00
18147;DHT22;9199;48.832;9.182;2023-09-19T13:32:34;28.60;61.60
18147;DHT22;9199;48.832;9.182;2023-09-19T13:35:01;28.40;60.90
18147;DHT22;9199;48.832;9.182;2023-09-19T13:37:28;28.20;61.70
18147;DHT22;9199;48.832;9.182;2023-09-19T13:39:56;27.90;63.20
18147;DHT22;9199;48.832;9.182;2023-09-19T13:42:25;27.10;64.60
18147;DHT22;9199;48.832;9.182;2023-09-19T13:44:55;27.60;64.10
18147;DHT22;9199;48.832;9.182;2023-09-19T13:47:22;29.40;60.30
18147;DHT22;9199;48.832;9.182;2023-09-19T13:49:52;30.70;57.30
18147;DHT22;9199;48.832;9.182;2023-09-19T13:52:19;31.70;55.50
18147;DHT22;9199;48.832;9.182;2023-09-19T13:54:47;31.60;55.70
18147;DHT22;9199;48.832;9.182;2023-09-19T13:57:15;31.60;55.80
18147;DHT22;9199;48.832;9.182;2023-09-19T13:59:42;31.80;55.00
18147;DHT22;9199;48.832;9.182;2023-09-19T14:02:09;31.30;55.70
18147;DHT22;9199;48.832;9.182;2023-09-19T14:04:36;31.20;55.00
18147;DHT22;9199;48.832;9.182;2023-09-19T14:07:03;30.60;56.10
18147;DHT22;9199;48.832;9.182;2023-09-19T14:09:30;30.20;57.40
18147;DHT22;9199;48.832;9.182;2023-09-19T14:11:56;31.30;56.00
18147;DHT22;9199;48.832;9.182;2023-09-19T14:14:25;32.50;53.40
18147;DHT22;9199;48.832;9.182;2023-09-19T14:16:51;33.10;51.80
18147;DHT22;9199;48.832;9.182;2023-09-19T14:19:18;33.50;51.00
18147;DHT22;9199;48.832;9.182;2023-09-19T14:21:45;33.60;50.40
18147;DHT22;9199;48.832;9.182;2023-09-19T14:24:16;33.50;50.90
18147;DHT22;9199;48.832;9.182;2023-09-19T14:26:44;33.30;49.60
18147;DHT22;9199;48.832;9.182;2023-09-19T14:29:11;33.10;49.50
18147;DHT22;9199;48.832;9.182;2023-09-19T14:31:40;33.10;49.60
18147;DHT22;9199;48.832;9.182;2023-09-19T14:34:07;32.20;49.80
18147;DHT22;9199;48.832;9.182;2023-09-19T14:36:35;31.40;51.20
18147;DHT22;9199;48.832;9.182;2023-09-19T14:39:04;30.10;53.50
18147;DHT22;9199;48.832;9.182;2023-09-19T14:41:32;29.30;55.10
18147;DHT22;9199;48.832;9.182;2023-09-19T14:43:59;28.70;55.90
18147;DHT22;9199;48.832;9.182;2023-09-19T14:46:25;28.40;56.00
18147;DHT22;9199;48.832;9.182;2023-09-19T14:48:55;27.60;57.90
18147;DHT22;9199;48.832;9.182;2023-09-19T14:51:25;28.00;58.50
18147;DHT22;9199;48.832;9.182;2023-09-19T14:53:53;28.80;57.10
18147;DHT22;9199;48.832;9.182;2023-09-19T14:56:19;29.40;54.70
18147;DHT22;9199;48.832;9.182;2023-09-19T14:58:49;29.50;54.80
18147;DHT22;9199;48.832;9.182;2023-09-19T15:01:16;30.30;53.20
18147;DHT22;9199;48.832;9.182;2023-09-19T15:03:43;29.90;53.60
18147;DHT22;9199;48.832;9.182;2023-09-19T15:06:13;29.30;54.20
18147;DHT22;9199;48.832;9.182;2023-09-19T15:08:43;28.70;54.70
18147;DHT22;9199;48.832;9.182;2023-09-19T15:11:12;28.10;55.50
18147;DHT22;9199;48.832;9.182;2023-09-19T15:13:41;27.90;55.80
18147;DHT22;9199;48.832;9.182;2023-09-19T15:16:09;28.10;55.10
18147;DHT22;9199;48.832;9.182;2023-09-19T15:18:36;27.70;54.80
18147;DHT22;9199;48.832;9.182;2023-09-19T15:21:04;27.80;54.60
18147;DHT22;9199;48.832;9.182;2023-09-19T15:23:33;28.00;54.40
18147;DHT22;9199;48.832;9.182;2023-09-19T15:26:01;28.70;53.70
18147;DHT22;9199;48.832;9.182;2023-09-19T15:28:29;29.10;53.50
18147;DHT22;9199;48.832;9.182;2023-09-19T15:30:58;29.00;53.50
18147;DHT22;9199;48.832;9.182;2023-09-19T15:33:25;29.00;53.30
18147;DHT22;9199;48.832;9.182;2023-09-19T15:36:00;29.20;52.50
18147;DHT22;9199;48.832;9.182;2023-09-19T15:38:28;29.00;53.00
18147;DHT22;9199;48.832;9.182;2023-09-19T15:40:56;29.00;53.20
18147;DHT22;9199;48.832;9.182;2023-09-19T15:43:23;28.70;53.40
18147;DHT22;9199;48.832;9.182;2023-09-19T15:45:50;28.00;54.80
18147;DHT22;9199;48.832;9.182;2023-09-19T15:48:17;27.10;56.10
18147;DHT22;9199;48.832;9.182;2023-09-19T15:50:43;26.50;57.90
18147;DHT22;9199;48.832;9.182;2023-09-19T15:53:10;25.80;58.90
18147;DHT22;9199;48.832;9.182;2023-09-19T15:55:38;25.20;60.20
18147;DHT22;9199;48.832;9.182;2023-09-19T15:58:07;24.80;61.40
18147;DHT22;9199;48.832;9.182;2023-09-19T16:00:34;24.70;62.10
18147;DHT22;9199;48.832;9.182;2023-09-19T16:03:01;24.70;62.30
18147;DHT22;9199;48.832;9.182;2023-09-19T16:05:28;24.80;63.20
18147;DHT22;9199;48.832;9.182;2023-09-19T16:08:03;24.80;62.70
18147;DHT22;9199;48.832;9.182;2023-09-19T16:10:34;24.70;63.20